sensor_id;sensor_type;location;lat;lon;timestamp;P1;durP1;ratioP1;P2;durP2;ratioP2
1062;SDS011;520;50.932;6.962;2023-04-08T00:02:19;14.37;;;11.13;;
1062;SDS011;520;50.932;6.962;2023-04-08T00:04:52;15.60;;;11.40;;
1062;SDS011;520;50.932;6.962;2023-04-08T00:07:26;15.13;;;11.10;;
1062;SDS011;520;50.932;6.962;2023-04-08T00:09:55;14.50;;;11.57;;
1062;SDS011;520;50.932;6.962;2023-04-08T00:12:25;14.33;;;10.30;;
1062;SDS011;520;50.932;6.962;2023-04-08T00:14:52;15.80;;;10.83;;
1062;SDS011;520;50.932;6.962;2023-04-08T00:17:42;14.20;;;9.97;;
1062;SDS011;520;50.932;6.962;2023-04-08T00:20:13;16.40;;;11.57;;
1062;SDS011;520;50.932;6.962;2023-04-08T00:22:42;15.27;;;10.10;;
1062;SDS011;520;50.932;6.962;2023-04-08T00:25:11;13.63;;;10.97;;
1062;SDS011;520;50.932;6.962;2023-04-08T00:27:53;15.37;;;11.33;;
1062;SDS011;520;50.932;6.962;2023-04-08T00:30:24;15.03;;;10.47;;
1062;SDS011;520;50.932;6.962;2023-04-08T00:32:53;13.37;;;11.13;;
1062;SDS011;520;50.932;6.962;2023-04-08T00:35:40;15.63;;;11.47;;
1062;SDS011;520;50.932;6.962;2023-04-08T00:38:20;14.73;;;10.90;;
1062;SDS011;520;50.932;6.962;2023-04-08T00:40:59;17.53;;;11.83;;
1062;SDS011;520;50.932;6.962;2023-04-08T00:43:42;16.87;;;11.73;;
1062;SDS011;520;50.932;6.962;2023-04-08T00:47:00;15.27;;;11.27;;
1062;SDS011;520;50.932;6.962;2023-04-08T00:49:20;15.00;;;11.07;;
1062;SDS011;520;50.932;6.962;2023-04-08T00:51:53;19.77;;;12.00;;
1062;SDS011;520;50.932;6.962;2023-04-08T00:54:27;13.60;;;10.63;;
1062;SDS011;520;50.932;6.962;2023-04-08T00:57:09;14.93;;;11.03;;
1062;SDS011;520;50.932;6.962;2023-04-08T00:59:45;17.53;;;11.30;;
1062;SDS011;520;50.932;6.962;2023-04-08T01:08:25;27.67;;;13.23;;
1062;SDS011;520;50.932;6.962;2023-04-08T01:11:15;17.63;;;13.80;;
1062;SDS011;520;50.932;6.962;2023-04-08T01:13:58;20.73;;;13.70;;
1062;SDS011;520;50.932;6.962;2023-04-08T01:16:37;17.07;;;12.27;;
1062;SDS011;520;50.932;6.962;2023-04-08T01:19:29;21.20;;;12.20;;
1062;SDS011;520;50.932;6.962;2023-04-08T01:25:21;20.30;;;12.00;;
1062;SDS011;520;50.932;6.962;2023-04-08T01:28:00;20.17;;;14.17;;
1062;SDS011;520;50.932;6.962;2023-04-08T01:30:55;27.73;;;14.93;;
1062;SDS011;520;50.932;6.962;2023-04-08T01:33:38;22.77;;;13.73;;
1062;SDS011;520;50.932;6.962;2023-04-08T01:36:09;21.20;;;13.80;;
1062;SDS011;520;50.932;6.962;2023-04-08T01:38:37;20.10;;;13.40;;
1062;SDS011;520;50.932;6.962;2023-04-08T01:41:13;24.17;;;13.40;;
1062;SDS011;520;50.932;6.962;2023-04-08T01:43:49;15.87;;;12.77;;
1062;SDS011;520;50.932;6.962;2023-04-08T01:46:31;18.30;;;11.60;;
1062;SDS011;520;50.932;6.962;2023-04-08T01:49:17;19.50;;;12.60;;
1062;SDS011;520;50.932;6.962;2023-04-08T01:51:56;18.03;;;12.63;;
1062;SDS011;520;50.932;6.962;2023-04-08T01:54:41;15.40;;;11.40;;
1062;SDS011;520;50.932;6.962;2023-04-08T01:57:23;24.07;;;13.40;;
1062;SDS011;520;50.932;6.962;2023-04-08T02:00:07;19.43;;;14.37;;
1062;SDS011;520;50.932;6.962;2023-04-08T02:02:46;15.60;;;11.73;;
1062;SDS011;520;50.932;6.962;2023-04-08T02:05:24;17.47;;;13.07;;
1062;SDS011;520;50.932;6.962;2023-04-08T02:07:57;19.10;;;12.83;;
1062;SDS011;520;50.932;6.962;2023-04-08T02:10:36;23.67;;;13.47;;
1062;SDS011;520;50.932;6.962;2023-04-08T02:13:10;18.63;;;12.97;;
1062;SDS011;520;50.932;6.962;2023-04-08T02:15:37;18.40;;;13.30;;
1062;SDS011;520;50.932;6.962;2023-04-08T02:18:29;20.83;;;13.33;;
1062;SDS011;520;50.932;6.962;2023-04-08T02:21:12;18.80;;;13.00;;
1062;SDS011;520;50.932;6.962;2023-04-08T02:23:57;18.17;;;13.27;;
1062;SDS011;520;50.932;6.962;2023-04-08T02:26:45;23.73;;;13.70;;
1062;SDS011;520;50.932;6.962;2023-04-08T02:29:31;17.30;;;13.07;;
1062;SDS011;520;50.932;6.962;2023-04-08T02:32:06;20.77;;;12.30;;
1062;SDS011;520;50.932;6.962;2023-04-08T02:34:44;19.73;;;13.03;;
1062;SDS011;520;50.932;6.962;2023-04-08T02:37:56;23.23;;;12.80;;
1062;SDS011;520;50.932;6.962;2023-04-08T02:40:55;20.50;;;13.83;;
1062;SDS011;520;50.932;6.962;2023-04-08T02:43:32;16.63;;;11.70;;
1062;SDS011;520;50.932;6.962;2023-04-08T02:46:11;23.30;;;12.67;;
1062;SDS011;520;50.932;6.962;2023-04-08T02:48:45;19.47;;;14.13;;
1062;SDS011;520;50.932;6.962;2023-04-08T02:51:17;18.87;;;12.90;;
1062;SDS011;520;50.932;6.962;2023-04-08T02:53:45;17.50;;;13.07;;
1062;SDS011;520;50.932;6.962;2023-04-08T02:56:24;25.00;;;15.13;;
1062;SDS011;520;50.932;6.962;2023-04-08T02:59:21;20.80;;;12.83;;
1062;SDS011;520;50.932;6.962;2023-04-08T03:02:18;15.47;;;12.70;;
1062;SDS011;520;50.932;6.962;2023-04-08T03:04:59;21.10;;;13.63;;
1062;SDS011;520;50.932;6.962;2023-04-08T03:07:34;17.73;;;12.40;;
1062;SDS011;520;50.932;6.962;2023-04-08T03:10:08;21.13;;;15.23;;
1062;SDS011;520;50.932;6.962;2023-04-08T03:13:01;21.47;;;14.33;;
1062;SDS011;520;50.932;6.962;2023-04-08T03:15:49;19.07;;;13.60;;
1062;SDS011;520;50.932;6.962;2023-04-08T03:18:19;22.87;;;14.73;;
1062;SDS011;520;50.932;6.962;2023-04-08T03:20:49;21.70;;;13.30;;
1062;SDS011;520;50.932;6.962;2023-04-08T03:23:29;20.00;;;13.33;;
1062;SDS011;520;50.932;6.962;2023-04-08T03:26:02;24.17;;;14.80;;
1062;SDS011;520;50.932;6.962;2023-04-08T03:28:32;24.90;;;14.90;;
1062;SDS011;520;50.932;6.962;2023-04-08T03:33:53;19.00;;;14.20;;
1062;SDS011;520;50.932;6.962;2023-04-08T03:36:28;23.93;;;14.27;;
1062;SDS011;520;50.932;6.962;2023-04-08T03:39:01;22.17;;;14.27;;
1062;SDS011;520;50.932;6.962;2023-04-08T03:41:39;20.33;;;13.27;;
1062;SDS011;520;50.932;6.962;2023-04-08T03:44:08;18.00;;;13.67;;
1062;SDS011;520;50.932;6.962;2023-04-08T03:46:40;18.53;;;13.57;;
1062;SDS011;520;50.932;6.962;2023-04-08T03:49:14;20.63;;;13.97;;
1062;SDS011;520;50.932;6.962;2023-04-08T03:51:46;20.17;;;15.33;;
1062;SDS011;520;50.932;6.962;2023-04-08T03:54:16;22.37;;;14.10;;
1062;SDS011;520;50.932;6.962;2023-04-08T03:56:45;21.13;;;15.20;;
1062;SDS011;520;50.932;6.962;2023-04-08T03:59:21;24.57;;;14.23;;
1062;SDS011;520;50.932;6.962;2023-04-08T04:01:48;20.57;;;14.10;;
1062;SDS011;520;50.932;6.962;2023-04-08T04:04:19;22.90;;;15.30;;
1062;SDS011;520;50.932;6.962;2023-04-08T04:06:48;21.33;;;15.40;;
1062;SDS011;520;50.932;6.962;2023-04-08T04:09:16;22.10;;;14.93;;
1062;SDS011;520;50.932;6.962;2023-04-08T04:11:51;20.37;;;13.57;;
1062;SDS011;520;50.932;6.962;2023-04-08T04:14:23;22.50;;;14.17;;
1062;SDS011;520;50.932;6.962;2023-04-08T04:16:50;18.30;;;14.43;;
1062;SDS011;520;50.932;6.962;2023-04-08T04:19:19;25.10;;;15.90;;
1062;SDS011;520;50.932;6.962;2023-04-08T04:21:48;22.33;;;14.73;;
1062;SDS011;520;50.932;6.962;2023-04-08T04:24:20;23.97;;;14.90;;
1062;SDS011;520;50.932;6.962;2023-04-08T04:26:51;24.50;;;15.20;;
1062;SDS011;520;50.932;6.962;2023-04-08T04:29:27;20.07;;;15.60;;
1062;SDS011;520;50.932;6.962;2023-04-08T04:31:59;24.73;;;16.00;;
1062;SDS011;520;50.932;6.962;2023-04-08T04:34:31;20.60;;;14.10;;
1062;SDS011;520;50.932;6.962;2023-04-08T04:37:07;22.33;;;15.43;;
1062;SDS011;520;50.932;6.962;2023-04-08T04:39:37;25.67;;;15.20;;
1062;SDS011;520;50.932;6.962;2023-04-08T04:42:10;23.70;;;15.80;;
1062;SDS011;520;50.932;6.962;2023-04-08T04:44:43;26.13;;;15.97;;
1062;SDS011;520;50.932;6.962;2023-04-08T04:47:10;23.73;;;17.17;;
1062;SDS011;520;50.932;6.962;2023-04-08T04:49:39;19.83;;;14.40;;
1062;SDS011;520;50.932;6.962;2023-04-08T04:52:16;35.43;;;18.90;;
1062;SDS011;520;50.932;6.962;2023-04-08T04:54:46;23.63;;;15.87;;
1062;SDS011;520;50.932;6.962;2023-04-08T04:57:18;24.50;;;15.80;;
1062;SDS011;520;50.932;6.962;2023-04-08T04:59:48;23.83;;;16.03;;
1062;SDS011;520;50.932;6.962;2023-04-08T05:02:20;27.30;;;17.20;;
1062;SDS011;520;50.932;6.962;2023-04-08T05:04:47;25.53;;;16.50;;
1062;SDS011;520;50.932;6.962;2023-04-08T05:07:21;21.93;;;15.77;;
1062;SDS011;520;50.932;6.962;2023-04-08T05:09:57;24.60;;;18.00;;
1062;SDS011;520;50.932;6.962;2023-04-08T05:12:32;27.77;;;16.47;;
1062;SDS011;520;50.932;6.962;2023-04-08T05:15:05;26.87;;;16.53;;
1062;SDS011;520;50.932;6.962;2023-04-08T05:17:32;24.07;;;16.07;;
1062;SDS011;520;50.932;6.962;2023-04-08T05:20:03;31.03;;;17.63;;
1062;SDS011;520;50.932;6.962;2023-04-08T05:22:35;22.87;;;15.73;;
1062;SDS011;520;50.932;6.962;2023-04-08T05:25:05;23.97;;;17.20;;
1062;SDS011;520;50.932;6.962;2023-04-08T05:27:35;25.20;;;17.80;;
1062;SDS011;520;50.932;6.962;2023-04-08T05:30:08;24.03;;;16.90;;
1062;SDS011;520;50.932;6.962;2023-04-08T05:32:41;22.47;;;16.37;;
1062;SDS011;520;50.932;6.962;2023-04-08T05:35:08;22.43;;;15.60;;
1062;SDS011;520;50.932;6.962;2023-04-08T05:37:38;24.43;;;15.67;;
1062;SDS011;520;50.932;6.962;2023-04-08T05:40:08;20.37;;;14.47;;
1062;SDS011;520;50.932;6.962;2023-04-08T05:42:38;26.57;;;18.20;;
1062;SDS011;520;50.932;6.962;2023-04-08T05:45:09;29.10;;;18.30;;
1062;SDS011;520;50.932;6.962;2023-04-08T05:47:44;24.13;;;17.50;;
1062;SDS011;520;50.932;6.962;2023-04-08T05:50:13;23.73;;;16.50;;
1062;SDS011;520;50.932;6.962;2023-04-08T05:52:42;27.33;;;17.53;;
1062;SDS011;520;50.932;6.962;2023-04-08T05:55:10;26.17;;;17.47;;
1062;SDS011;520;50.932;6.962;2023-04-08T05:57:40;27.03;;;17.03;;
1062;SDS011;520;50.932;6.962;2023-04-08T06:00:08;28.43;;;19.20;;
1062;SDS011;520;50.932;6.962;2023-04-08T06:02:35;26.60;;;18.03;;
1062;SDS011;520;50.932;6.962;2023-04-08T06:05:02;24.43;;;16.97;;
1062;SDS011;520;50.932;6.962;2023-04-08T06:07:31;27.97;;;18.30;;
1062;SDS011;520;50.932;6.962;2023-04-08T06:09:58;26.03;;;17.87;;
1062;SDS011;520;50.932;6.962;2023-04-08T06:12:25;31.63;;;21.30;;
1062;SDS011;520;50.932;6.962;2023-04-08T06:14:54;29.60;;;18.70;;
1062;SDS011;520;50.932;6.962;2023-04-08T06:17:22;29.30;;;19.53;;
1062;SDS011;520;50.932;6.962;2023-04-08T06:19:49;30.17;;;21.73;;
1062;SDS011;520;50.932;6.962;2023-04-08T06:22:16;29.77;;;19.77;;
1062;SDS011;520;50.932;6.962;2023-04-08T06:24:55;26.47;;;19.07;;
1062;SDS011;520;50.932;6.962;2023-04-08T06:27:34;28.97;;;18.50;;
1062;SDS011;520;50.932;6.962;2023-04-08T06:31:14;25.37;;;16.93;;
1062;SDS011;520;50.932;6.962;2023-04-08T06:33:26;25.93;;;16.77;;
1062;SDS011;520;50.932;6.962;2023-04-08T06:36:02;24.37;;;16.63;;
1062;SDS011;520;50.932;6.962;2023-04-08T06:38:32;24.37;;;17.93;;
1062;SDS011;520;50.932;6.962;2023-04-08T06:44:31;25.20;;;17.13;;
1062;SDS011;520;50.932;6.962;2023-04-08T06:46:57;22.13;;;16.53;;
1062;SDS011;520;50.932;6.962;2023-04-08T06:49:24;25.67;;;16.77;;
1062;SDS011;520;50.932;6.962;2023-04-08T06:51:52;23.77;;;15.80;;
1062;SDS011;520;50.932;6.962;2023-04-08T06:59:32;24.33;;;16.40;;
1062;SDS011;520;50.932;6.962;2023-04-08T07:02:05;28.00;;;19.07;;
1062;SDS011;520;50.932;6.962;2023-04-08T07:04:34;24.10;;;16.87;;
1062;SDS011;520;50.932;6.962;2023-04-08T07:07:04;23.87;;;17.40;;
1062;SDS011;520;50.932;6.962;2023-04-08T07:09:36;24.70;;;16.10;;
1062;SDS011;520;50.932;6.962;2023-04-08T07:12:12;28.87;;;20.30;;
1062;SDS011;520;50.932;6.962;2023-04-08T07:14:43;28.50;;;19.90;;
1062;SDS011;520;50.932;6.962;2023-04-08T07:17:18;28.47;;;18.70;;
1062;SDS011;520;50.932;6.962;2023-04-08T07:20:11;25.93;;;17.63;;
1062;SDS011;520;50.932;6.962;2023-04-08T07:22:42;27.83;;;18.00;;
1062;SDS011;520;50.932;6.962;2023-04-08T07:30:27;26.53;;;18.80;;
1062;SDS011;520;50.932;6.962;2023-04-08T07:33:05;28.43;;;19.63;;
1062;SDS011;520;50.932;6.962;2023-04-08T07:35:32;29.90;;;20.77;;
1062;SDS011;520;50.932;6.962;2023-04-08T07:38:09;31.23;;;21.60;;
1062;SDS011;520;50.932;6.962;2023-04-08T07:40:46;30.57;;;21.87;;
1062;SDS011;520;50.932;6.962;2023-04-08T07:43:33;28.77;;;20.43;;
1062;SDS011;520;50.932;6.962;2023-04-08T07:46:09;30.53;;;21.67;;
1062;SDS011;520;50.932;6.962;2023-04-08T07:48:41;29.20;;;20.10;;
1062;SDS011;520;50.932;6.962;2023-04-08T07:51:11;31.37;;;21.37;;
1062;SDS011;520;50.932;6.962;2023-04-08T07:53:47;28.93;;;20.70;;
1062;SDS011;520;50.932;6.962;2023-04-08T07:56:28;29.30;;;20.77;;
1062;SDS011;520;50.932;6.962;2023-04-08T08:02:40;31.00;;;22.80;;
1062;SDS011;520;50.932;6.962;2023-04-08T08:05:11;30.70;;;22.20;;
1062;SDS011;520;50.932;6.962;2023-04-08T08:07:54;33.53;;;23.70;;
1062;SDS011;520;50.932;6.962;2023-04-08T08:10:22;32.50;;;22.33;;
1062;SDS011;520;50.932;6.962;2023-04-08T08:12:56;30.23;;;22.30;;
1062;SDS011;520;50.932;6.962;2023-04-08T08:15:22;33.20;;;23.00;;
1062;SDS011;520;50.932;6.962;2023-04-08T08:17:52;35.33;;;25.80;;
1062;SDS011;520;50.932;6.962;2023-04-08T08:20:26;31.60;;;22.27;;
1062;SDS011;520;50.932;6.962;2023-04-08T08:23:13;34.43;;;23.57;;
1062;SDS011;520;50.932;6.962;2023-04-08T08:26:01;31.20;;;23.47;;
1062;SDS011;520;50.932;6.962;2023-04-08T08:28:41;32.83;;;23.67;;
1062;SDS011;520;50.932;6.962;2023-04-08T08:31:11;32.00;;;24.13;;
1062;SDS011;520;50.932;6.962;2023-04-08T08:33:43;32.03;;;23.23;;
1062;SDS011;520;50.932;6.962;2023-04-08T08:36:27;33.50;;;24.50;;
1062;SDS011;520;50.932;6.962;2023-04-08T08:38:59;30.73;;;23.20;;
1062;SDS011;520;50.932;6.962;2023-04-08T08:41:39;30.20;;;21.80;;
1062;SDS011;520;50.932;6.962;2023-04-08T08:44:10;32.97;;;23.03;;
1062;SDS011;520;50.932;6.962;2023-04-08T08:46:42;32.03;;;23.00;;
1062;SDS011;520;50.932;6.962;2023-04-08T08:49:15;36.90;;;22.90;;
1062;SDS011;520;50.932;6.962;2023-04-08T08:51:45;30.23;;;22.63;;
1062;SDS011;520;50.932;6.962;2023-04-08T08:56:57;29.17;;;20.20;;
1062;SDS011;520;50.932;6.962;2023-04-08T08:59:36;31.27;;;21.80;;
1062;SDS011;520;50.932;6.962;2023-04-08T09:02:11;30.30;;;20.80;;
1062;SDS011;520;50.932;6.962;2023-04-08T09:05:00;30.40;;;19.90;;
1062;SDS011;520;50.932;6.962;2023-04-08T09:07:44;27.33;;;20.93;;
1062;SDS011;520;50.932;6.962;2023-04-08T09:10:27;28.70;;;19.40;;
1062;SDS011;520;50.932;6.962;2023-04-08T09:13:00;29.37;;;20.83;;
1062;SDS011;520;50.932;6.962;2023-04-08T09:15:27;30.43;;;21.43;;
1062;SDS011;520;50.932;6.962;2023-04-08T09:21:16;29.63;;;21.43;;
1062;SDS011;520;50.932;6.962;2023-04-08T09:23:53;31.70;;;21.27;;
1062;SDS011;520;50.932;6.962;2023-04-08T09:26:33;29.87;;;21.77;;
1062;SDS011;520;50.932;6.962;2023-04-08T09:29:18;25.73;;;19.53;;
1062;SDS011;520;50.932;6.962;2023-04-08T09:32:20;28.97;;;20.30;;
1062;SDS011;520;50.932;6.962;2023-04-08T09:34:55;27.50;;;20.67;;
1062;SDS011;520;50.932;6.962;2023-04-08T09:37:25;29.57;;;21.30;;
1062;SDS011;520;50.932;6.962;2023-04-08T09:39:59;28.73;;;20.40;;
1062;SDS011;520;50.932;6.962;2023-04-08T09:42:37;29.33;;;20.63;;
1062;SDS011;520;50.932;6.962;2023-04-08T09:45:11;28.63;;;20.87;;
1062;SDS011;520;50.932;6.962;2023-04-08T09:47:43;33.67;;;22.73;;
1062;SDS011;520;50.932;6.962;2023-04-08T09:50:31;34.20;;;22.77;;
1062;SDS011;520;50.932;6.962;2023-04-08T09:53:11;36.57;;;23.93;;
1062;SDS011;520;50.932;6.962;2023-04-08T09:55:54;34.00;;;24.10;;
1062;SDS011;520;50.932;6.962;2023-04-08T09:58:41;37.00;;;26.73;;
1062;SDS011;520;50.932;6.962;2023-04-08T10:01:54;46.73;;;27.53;;
1062;SDS011;520;50.932;6.962;2023-04-08T10:04:26;45.57;;;28.47;;
1062;SDS011;520;50.932;6.962;2023-04-08T10:07:12;44.10;;;27.00;;
1062;SDS011;520;50.932;6.962;2023-04-08T10:09:44;48.23;;;30.63;;
1062;SDS011;520;50.932;6.962;2023-04-08T10:12:21;45.20;;;28.40;;
1062;SDS011;520;50.932;6.962;2023-04-08T10:23:11;39.07;;;27.00;;
1062;SDS011;520;50.932;6.962;2023-04-08T10:26:30;36.63;;;24.80;;
1062;SDS011;520;50.932;6.962;2023-04-08T10:32:39;34.83;;;23.80;;
1062;SDS011;520;50.932;6.962;2023-04-08T10:35:16;33.90;;;25.60;;
1062;SDS011;520;50.932;6.962;2023-04-08T10:38:01;30.47;;;24.13;;
1062;SDS011;520;50.932;6.962;2023-04-08T10:40:35;29.57;;;21.87;;
1062;SDS011;520;50.932;6.962;2023-04-08T10:43:08;26.50;;;22.27;;
1062;SDS011;520;50.932;6.962;2023-04-08T10:45:50;26.83;;;20.33;;
1062;SDS011;520;50.932;6.962;2023-04-08T10:48:24;27.43;;;22.23;;
1062;SDS011;520;50.932;6.962;2023-04-08T10:51:01;27.77;;;22.37;;
1062;SDS011;520;50.932;6.962;2023-04-08T10:53:44;23.97;;;21.27;;
1062;SDS011;520;50.932;6.962;2023-04-08T10:56:14;27.17;;;22.40;;
1062;SDS011;520;50.932;6.962;2023-04-08T10:58:50;29.63;;;22.43;;
1062;SDS011;520;50.932;6.962;2023-04-08T11:01:22;28.30;;;22.60;;
1062;SDS011;520;50.932;6.962;2023-04-08T11:03:58;30.90;;;23.93;;
1062;SDS011;520;50.932;6.962;2023-04-08T11:06:35;33.67;;;25.30;;
1062;SDS011;520;50.932;6.962;2023-04-08T11:09:06;29.03;;;22.47;;
1062;SDS011;520;50.932;6.962;2023-04-08T11:11:39;28.93;;;23.53;;
1062;SDS011;520;50.932;6.962;2023-04-08T11:14:13;30.67;;;22.83;;
1062;SDS011;520;50.932;6.962;2023-04-08T11:16:48;28.07;;;23.00;;
1062;SDS011;520;50.932;6.962;2023-04-08T11:19:27;33.40;;;23.93;;
1062;SDS011;520;50.932;6.962;2023-04-08T11:22:08;27.13;;;21.23;;
1062;SDS011;520;50.932;6.962;2023-04-08T11:25:04;31.50;;;21.60;;
1062;SDS011;520;50.932;6.962;2023-04-08T11:27:56;33.57;;;24.90;;
1062;SDS011;520;50.932;6.962;2023-04-08T11:30:29;32.90;;;23.57;;
1062;SDS011;520;50.932;6.962;2023-04-08T11:33:11;33.07;;;23.60;;
1062;SDS011;520;50.932;6.962;2023-04-08T11:35:40;33.20;;;24.93;;
1062;SDS011;520;50.932;6.962;2023-04-08T11:38:14;35.03;;;23.93;;
1062;SDS011;520;50.932;6.962;2023-04-08T11:40:53;34.80;;;24.10;;
1062;SDS011;520;50.932;6.962;2023-04-08T11:43:27;35.37;;;24.13;;
1062;SDS011;520;50.932;6.962;2023-04-08T11:46:09;29.17;;;22.27;;
1062;SDS011;520;50.932;6.962;2023-04-08T11:48:39;33.63;;;24.97;;
1062;SDS011;520;50.932;6.962;2023-04-08T11:51:16;37.37;;;24.63;;
1062;SDS011;520;50.932;6.962;2023-04-08T11:53:47;34.10;;;22.17;;
1062;SDS011;520;50.932;6.962;2023-04-08T11:56:24;34.20;;;22.00;;
1062;SDS011;520;50.932;6.962;2023-04-08T11:58:59;35.63;;;22.70;;
1062;SDS011;520;50.932;6.962;2023-04-08T12:01:43;33.63;;;22.93;;
1062;SDS011;520;50.932;6.962;2023-04-08T12:07:15;32.43;;;22.40;;
1062;SDS011;520;50.932;6.962;2023-04-08T12:09:59;35.43;;;24.10;;
1062;SDS011;520;50.932;6.962;2023-04-08T12:12:31;36.27;;;24.10;;
1062;SDS011;520;50.932;6.962;2023-04-08T12:15:12;34.43;;;23.40;;
1062;SDS011;520;50.932;6.962;2023-04-08T12:17:44;31.33;;;22.37;;
1062;SDS011;520;50.932;6.962;2023-04-08T12:20:24;34.53;;;23.50;;
1062;SDS011;520;50.932;6.962;2023-04-08T12:26:09;32.37;;;21.80;;
1062;SDS011;520;50.932;6.962;2023-04-08T12:29:08;34.10;;;25.23;;
1062;SDS011;520;50.932;6.962;2023-04-08T12:32:01;30.10;;;21.60;;
1062;SDS011;520;50.932;6.962;2023-04-08T12:35:21;33.27;;;23.00;;
1062;SDS011;520;50.932;6.962;2023-04-08T12:38:26;27.37;;;21.70;;
1062;SDS011;520;50.932;6.962;2023-04-08T12:40:57;32.53;;;22.80;;
1062;SDS011;520;50.932;6.962;2023-04-08T12:43:26;34.93;;;22.77;;
1062;SDS011;520;50.932;6.962;2023-04-08T12:46:27;28.83;;;20.70;;
1062;SDS011;520;50.932;6.962;2023-04-08T12:49:36;31.43;;;21.70;;
1062;SDS011;520;50.932;6.962;2023-04-08T12:52:44;30.60;;;21.13;;
1062;SDS011;520;50.932;6.962;2023-04-08T12:55:48;31.00;;;22.07;;
1062;SDS011;520;50.932;6.962;2023-04-08T12:58:41;29.50;;;20.07;;
1062;SDS011;520;50.932;6.962;2023-04-08T13:01:34;28.47;;;22.57;;
1062;SDS011;520;50.932;6.962;2023-04-08T13:04:07;27.73;;;20.40;;
1062;SDS011;520;50.932;6.962;2023-04-08T13:06:55;31.97;;;22.57;;
1062;SDS011;520;50.932;6.962;2023-04-08T13:09:56;30.97;;;21.57;;
1062;SDS011;520;50.932;6.962;2023-04-08T13:12:42;27.77;;;22.37;;
1062;SDS011;520;50.932;6.962;2023-04-08T13:15:19;28.80;;;20.97;;
1062;SDS011;520;50.932;6.962;2023-04-08T13:17:57;30.90;;;21.20;;
1062;SDS011;520;50.932;6.962;2023-04-08T13:20:44;29.20;;;22.10;;
1062;SDS011;520;50.932;6.962;2023-04-08T13:23:18;32.70;;;22.77;;
1062;SDS011;520;50.932;6.962;2023-04-08T13:25:56;31.83;;;24.13;;
1062;SDS011;520;50.932;6.962;2023-04-08T13:28:58;32.10;;;23.33;;
1062;SDS011;520;50.932;6.962;2023-04-08T13:31:55;32.90;;;23.80;;
1062;SDS011;520;50.932;6.962;2023-04-08T13:34:34;31.30;;;24.90;;
1062;SDS011;520;50.932;6.962;2023-04-08T13:37:36;31.40;;;22.13;;
1062;SDS011;520;50.932;6.962;2023-04-08T13:40:15;27.73;;;20.67;;
1062;SDS011;520;50.932;6.962;2023-04-08T13:42:54;22.50;;;18.10;;
1062;SDS011;520;50.932;6.962;2023-04-08T13:45:55;22.90;;;18.90;;
1062;SDS011;520;50.932;6.962;2023-04-08T13:48:32;21.57;;;16.70;;
1062;SDS011;520;50.932;6.962;2023-04-08T13:51:18;16.60;;;14.50;;
1062;SDS011;520;50.932;6.962;2023-04-08T13:53:51;16.47;;;13.37;;
1062;SDS011;520;50.932;6.962;2023-04-08T13:56:33;17.07;;;13.63;;
1062;SDS011;520;50.932;6.962;2023-04-08T13:59:08;15.60;;;12.63;;
1062;SDS011;520;50.932;6.962;2023-04-08T14:01:47;14.27;;;11.00;;
1062;SDS011;520;50.932;6.962;2023-04-08T14:04:34;12.93;;;10.90;;
1062;SDS011;520;50.932;6.962;2023-04-08T14:07:16;12.27;;;10.20;;
1062;SDS011;520;50.932;6.962;2023-04-08T14:09:56;12.70;;;10.53;;
1062;SDS011;520;50.932;6.962;2023-04-08T14:12:40;11.27;;;9.70;;
1062;SDS011;520;50.932;6.962;2023-04-08T14:15:19;8.70;;;7.80;;
1062;SDS011;520;50.932;6.962;2023-04-08T14:17:53;8.40;;;6.60;;
1062;SDS011;520;50.932;6.962;2023-04-08T14:20:26;6.97;;;5.97;;
1062;SDS011;520;50.932;6.962;2023-04-08T14:22:57;9.43;;;6.50;;
1062;SDS011;520;50.932;6.962;2023-04-08T14:25:32;7.97;;;6.20;;
1062;SDS011;520;50.932;6.962;2023-04-08T14:31:26;5.97;;;5.37;;
1062;SDS011;520;50.932;6.962;2023-04-08T14:34:05;8.30;;;5.53;;
1062;SDS011;520;50.932;6.962;2023-04-08T14:36:41;8.10;;;6.40;;
1062;SDS011;520;50.932;6.962;2023-04-08T14:39:14;6.70;;;5.57;;
1062;SDS011;520;50.932;6.962;2023-04-08T14:42:01;8.63;;;6.00;;
1062;SDS011;520;50.932;6.962;2023-04-08T14:44:59;7.47;;;6.30;;
1062;SDS011;520;50.932;6.962;2023-04-08T14:47:35;7.40;;;6.70;;
1062;SDS011;520;50.932;6.962;2023-04-08T14:50:11;9.90;;;7.37;;
1062;SDS011;520;50.932;6.962;2023-04-08T14:52:50;7.73;;;6.90;;
1062;SDS011;520;50.932;6.962;2023-04-08T14:55:27;9.20;;;6.50;;
1062;SDS011;520;50.932;6.962;2023-04-08T14:58:24;7.53;;;6.77;;
1062;SDS011;520;50.932;6.962;2023-04-08T15:00:57;8.60;;;7.13;;
1062;SDS011;520;50.932;6.962;2023-04-08T15:03:32;9.57;;;7.80;;
1062;SDS011;520;50.932;6.962;2023-04-08T15:06:12;6.47;;;5.80;;
1062;SDS011;520;50.932;6.962;2023-04-08T15:08:49;8.40;;;6.93;;
1062;SDS011;520;50.932;6.962;2023-04-08T15:11:20;7.43;;;6.63;;
1062;SDS011;520;50.932;6.962;2023-04-08T15:14:00;6.87;;;6.10;;
1062;SDS011;520;50.932;6.962;2023-04-08T15:16:27;6.50;;;5.50;;
1062;SDS011;520;50.932;6.962;2023-04-08T15:19:01;7.73;;;6.67;;
1062;SDS011;520;50.932;6.962;2023-04-08T15:21:31;14.30;;;8.30;;
1062;SDS011;520;50.932;6.962;2023-04-08T15:24:05;10.13;;;8.20;;
1062;SDS011;520;50.932;6.962;2023-04-08T15:26:32;8.63;;;7.83;;
1062;SDS011;520;50.932;6.962;2023-04-08T15:29:01;7.93;;;7.13;;
1062;SDS011;520;50.932;6.962;2023-04-08T15:31:30;9.50;;;8.50;;
1062;SDS011;520;50.932;6.962;2023-04-08T15:33:57;8.83;;;7.97;;
1062;SDS011;520;50.932;6.962;2023-04-08T15:36:31;9.80;;;8.80;;
1062;SDS011;520;50.932;6.962;2023-04-08T15:39:01;9.07;;;7.97;;
1062;SDS011;520;50.932;6.962;2023-04-08T15:41:33;25.60;;;22.97;;
1062;SDS011;520;50.932;6.962;2023-04-08T15:44:19;12.40;;;10.60;;
1062;SDS011;520;50.932;6.962;2023-04-08T15:47:01;11.20;;;10.20;;
1062;SDS011;520;50.932;6.962;2023-04-08T15:49:34;11.23;;;10.20;;
1062;SDS011;520;50.932;6.962;2023-04-08T15:52:14;13.00;;;11.80;;
1062;SDS011;520;50.932;6.962;2023-04-08T15:54:45;13.53;;;12.23;;
1062;SDS011;520;50.932;6.962;2023-04-08T15:57:21;26.03;;;22.83;;
1062;SDS011;520;50.932;6.962;2023-04-08T16:00:05;14.33;;;13.00;;
1062;SDS011;520;50.932;6.962;2023-04-08T16:03:08;18.00;;;16.40;;
1062;SDS011;520;50.932;6.962;2023-04-08T16:05:51;18.40;;;16.40;;
1062;SDS011;520;50.932;6.962;2023-04-08T16:08:49;19.03;;;17.03;;
1062;SDS011;520;50.932;6.962;2023-04-08T16:11:29;20.43;;;18.37;;
1062;SDS011;520;50.932;6.962;2023-04-08T16:14:05;19.37;;;17.37;;
1062;SDS011;520;50.932;6.962;2023-04-08T16:16:56;22.00;;;17.60;;
1062;SDS011;520;50.932;6.962;2023-04-08T16:19:32;20.77;;;18.57;;
1062;SDS011;520;50.932;6.962;2023-04-08T16:22:19;20.77;;;18.67;;
1062;SDS011;520;50.932;6.962;2023-04-08T16:25:30;20.87;;;18.77;;
1062;SDS011;520;50.932;6.962;2023-04-08T16:28:23;20.40;;;18.17;;
1062;SDS011;520;50.932;6.962;2023-04-08T16:30:57;16.33;;;14.83;;
1062;SDS011;520;50.932;6.962;2023-04-08T16:33:57;12.60;;;11.40;;
1062;SDS011;520;50.932;6.962;2023-04-08T16:36:27;12.90;;;11.60;;
1062;SDS011;520;50.932;6.962;2023-04-08T16:39:22;13.10;;;11.80;;
1062;SDS011;520;50.932;6.962;2023-04-08T16:42:00;15.97;;;14.37;;
1062;SDS011;520;50.932;6.962;2023-04-08T16:44:53;14.00;;;12.60;;
1062;SDS011;520;50.932;6.962;2023-04-08T16:47:39;15.33;;;12.37;;
1062;SDS011;520;50.932;6.962;2023-04-08T16:50:11;15.87;;;14.20;;
1062;SDS011;520;50.932;6.962;2023-04-08T16:56:17;16.17;;;14.57;;
1062;SDS011;520;50.932;6.962;2023-04-08T16:59:00;16.53;;;14.83;;
1062;SDS011;520;50.932;6.962;2023-04-08T17:01:32;16.73;;;15.13;;
1062;SDS011;520;50.932;6.962;2023-04-08T17:04:10;16.17;;;14.53;;
1062;SDS011;520;50.932;6.962;2023-04-08T17:06:42;16.73;;;15.00;;
1062;SDS011;520;50.932;6.962;2023-04-08T17:09:23;15.13;;;13.73;;